sensor_id;sensor_type;location;lat;lon;timestamp;P1;durP1;ratioP1;P2;durP2;ratioP2
32501;SDS011;18952;52.516;13.460;2023-02-11T00:01:16;86.00;;;56.22;;
32501;SDS011;18952;52.516;13.460;2023-02-11T00:03:52;83.75;;;54.28;;
32501;SDS011;18952;52.516;13.460;2023-02-11T00:06:20;85.07;;;55.10;;
32501;SDS011;18952;52.516;13.460;2023-02-11T00:08:48;89.38;;;55.78;;
32501;SDS011;18952;52.516;13.460;2023-02-11T00:11:15;83.13;;;55.15;;
32501;SDS011;18952;52.516;13.460;2023-02-11T00:13:43;80.97;;;55.25;;
32501;SDS011;18952;52.516;13.460;2023-02-11T00:16:12;85.15;;;55.08;;
32501;SDS011;18952;52.516;13.460;2023-02-11T00:18:43;81.68;;;54.60;;
32501;SDS011;18952;52.516;13.460;2023-02-11T00:21:14;85.78;;;54.80;;
32501;SDS011;18952;52.516;13.460;2023-02-11T00:23:43;81.35;;;51.63;;
32501;SDS011;18952;52.516;13.460;2023-02-11T00:26:12;80.07;;;53.90;;
32501;SDS011;18952;52.516;13.460;2023-02-11T00:28:40;79.97;;;53.08;;
32501;SDS011;18952;52.516;13.460;2023-02-11T00:31:07;84.07;;;53.25;;
32501;SDS011;18952;52.516;13.460;2023-02-11T00:33:34;80.57;;;54.10;;
32501;SDS011;18952;52.516;13.460;2023-02-11T00:36:04;82.72;;;52.47;;
32501;SDS011;18952;52.516;13.460;2023-02-11T00:38:35;76.05;;;52.47;;
32501;SDS011;18952;52.516;13.460;2023-02-11T00:41:01;81.13;;;52.17;;
32501;SDS011;18952;52.516;13.460;2023-02-11T00:43:28;80.43;;;52.60;;
32501;SDS011;18952;52.516;13.460;2023-02-11T00:45:55;76.90;;;51.45;;
32501;SDS011;18952;52.516;13.460;2023-02-11T00:48:22;79.65;;;52.67;;
32501;SDS011;18952;52.516;13.460;2023-02-11T00:50:49;78.68;;;51.20;;
32501;SDS011;18952;52.516;13.460;2023-02-11T00:53:15;75.10;;;51.47;;
32501;SDS011;18952;52.516;13.460;2023-02-11T00:55:42;73.18;;;51.65;;
32501;SDS011;18952;52.516;13.460;2023-02-11T00:58:09;77.85;;;51.22;;
32501;SDS011;18952;52.516;13.460;2023-02-11T01:00:36;75.00;;;50.75;;
32501;SDS011;18952;52.516;13.460;2023-02-11T01:03:02;76.47;;;51.85;;
32501;SDS011;18952;52.516;13.460;2023-02-11T01:05:29;76.57;;;51.40;;
32501;SDS011;18952;52.516;13.460;2023-02-11T01:07:56;72.88;;;51.05;;
32501;SDS011;18952;52.516;13.460;2023-02-11T01:10:23;72.30;;;50.17;;
32501;SDS011;18952;52.516;13.460;2023-02-11T01:12:50;74.90;;;51.40;;
32501;SDS011;18952;52.516;13.460;2023-02-11T01:15:18;75.95;;;50.28;;
32501;SDS011;18952;52.516;13.460;2023-02-11T01:17:45;79.88;;;51.38;;
32501;SDS011;18952;52.516;13.460;2023-02-11T01:20:13;75.65;;;50.70;;
32501;SDS011;18952;52.516;13.460;2023-02-11T01:22:42;75.75;;;51.40;;
32501;SDS011;18952;52.516;13.460;2023-02-11T01:25:08;77.57;;;51.33;;
32501;SDS011;18952;52.516;13.460;2023-02-11T01:27:36;72.93;;;50.40;;
32501;SDS011;18952;52.516;13.460;2023-02-11T01:30:03;76.05;;;51.70;;
32501;SDS011;18952;52.516;13.460;2023-02-11T01:32:31;74.05;;;50.10;;
32501;SDS011;18952;52.516;13.460;2023-02-11T01:34:58;77.25;;;51.17;;
32501;SDS011;18952;52.516;13.460;2023-02-11T01:37:25;74.00;;;50.05;;
32501;SDS011;18952;52.516;13.460;2023-02-11T01:39:52;76.50;;;50.70;;
32501;SDS011;18952;52.516;13.460;2023-02-11T01:42:20;76.20;;;51.20;;
32501;SDS011;18952;52.516;13.460;2023-02-11T01:44:49;77.75;;;51.38;;
32501;SDS011;18952;52.516;13.460;2023-02-11T01:47:17;77.40;;;50.78;;
32501;SDS011;18952;52.516;13.460;2023-02-11T01:49:49;69.82;;;48.78;;
32501;SDS011;18952;52.516;13.460;2023-02-11T01:52:21;75.93;;;51.08;;
32501;SDS011;18952;52.516;13.460;2023-02-11T01:55:02;70.32;;;48.53;;
32501;SDS011;18952;52.516;13.460;2023-02-11T01:57:34;69.03;;;48.08;;
32501;SDS011;18952;52.516;13.460;2023-02-11T02:02:51;72.90;;;47.75;;
32501;SDS011;18952;52.516;13.460;2023-02-11T02:08:32;73.47;;;48.65;;
32501;SDS011;18952;52.516;13.460;2023-02-11T02:11:07;68.88;;;49.00;;
32501;SDS011;18952;52.516;13.460;2023-02-11T02:13:34;73.43;;;48.90;;
32501;SDS011;18952;52.516;13.460;2023-02-11T02:16:06;70.82;;;48.90;;
32501;SDS011;18952;52.516;13.460;2023-02-11T02:37:55;73.35;;;49.95;;
32501;SDS011;18952;52.516;13.460;2023-02-11T02:40:30;72.03;;;49.42;;
32501;SDS011;18952;52.516;13.460;2023-02-11T02:43:01;77.82;;;49.88;;
32501;SDS011;18952;52.516;13.460;2023-02-11T02:45:29;69.63;;;49.40;;
32501;SDS011;18952;52.516;13.460;2023-02-11T02:47:55;73.93;;;50.60;;
32501;SDS011;18952;52.516;13.460;2023-02-11T02:50:25;73.45;;;52.42;;
32501;SDS011;18952;52.516;13.460;2023-02-11T03:04:30;74.13;;;51.97;;
32501;SDS011;18952;52.516;13.460;2023-02-11T03:09:36;76.10;;;52.08;;
32501;SDS011;18952;52.516;13.460;2023-02-11T03:12:10;79.68;;;52.97;;
32501;SDS011;18952;52.516;13.460;2023-02-11T03:14:39;76.82;;;53.30;;
32501;SDS011;18952;52.516;13.460;2023-02-11T03:17:06;76.80;;;54.00;;
32501;SDS011;18952;52.516;13.460;2023-02-11T03:19:36;74.18;;;53.90;;
32501;SDS011;18952;52.516;13.460;2023-02-11T03:22:23;77.68;;;53.30;;
32501;SDS011;18952;52.516;13.460;2023-02-11T03:24:52;75.75;;;53.80;;
32501;SDS011;18952;52.516;13.460;2023-02-11T03:30:20;71.40;;;51.75;;
32501;SDS011;18952;52.516;13.460;2023-02-11T03:33:00;78.32;;;54.45;;
32501;SDS011;18952;52.516;13.460;2023-02-11T03:38:19;78.35;;;55.13;;
32501;SDS011;18952;52.516;13.460;2023-02-11T03:40:49;78.30;;;55.72;;
32501;SDS011;18952;52.516;13.460;2023-02-11T03:43:20;80.20;;;56.88;;
32501;SDS011;18952;52.516;13.460;2023-02-11T03:45:50;75.78;;;56.28;;
32501;SDS011;18952;52.516;13.460;2023-02-11T03:48:21;73.22;;;55.42;;
32501;SDS011;18952;52.516;13.460;2023-02-11T03:50:57;74.68;;;53.72;;
32501;SDS011;18952;52.516;13.460;2023-02-11T03:53:27;81.95;;;57.55;;
32501;SDS011;18952;52.516;13.460;2023-02-11T03:55:54;81.45;;;56.80;;
32501;SDS011;18952;52.516;13.460;2023-02-11T03:58:23;77.90;;;57.25;;
32501;SDS011;18952;52.516;13.460;2023-02-11T04:00:50;84.85;;;57.90;;
32501;SDS011;18952;52.516;13.460;2023-02-11T04:03:17;76.90;;;57.28;;
32501;SDS011;18952;52.516;13.460;2023-02-11T04:05:44;79.45;;;57.65;;
32501;SDS011;18952;52.516;13.460;2023-02-11T04:08:10;81.97;;;59.67;;
32501;SDS011;18952;52.516;13.460;2023-02-11T04:10:37;83.60;;;57.60;;
32501;SDS011;18952;52.516;13.460;2023-02-11T04:13:04;81.78;;;57.65;;
32501;SDS011;18952;52.516;13.460;2023-02-11T04:15:30;79.05;;;58.15;;
32501;SDS011;18952;52.516;13.460;2023-02-11T04:17:57;84.38;;;59.72;;
32501;SDS011;18952;52.516;13.460;2023-02-11T04:20:24;80.47;;;59.15;;
32501;SDS011;18952;52.516;13.460;2023-02-11T04:22:51;79.53;;;58.47;;
32501;SDS011;18952;52.516;13.460;2023-02-11T04:25:17;82.80;;;60.47;;
32501;SDS011;18952;52.516;13.460;2023-02-11T04:27:44;82.38;;;59.83;;
32501;SDS011;18952;52.516;13.460;2023-02-11T04:30:11;83.40;;;59.92;;
32501;SDS011;18952;52.516;13.460;2023-02-11T04:32:38;81.30;;;59.58;;
32501;SDS011;18952;52.516;13.460;2023-02-11T04:35:06;82.55;;;60.60;;
32501;SDS011;18952;52.516;13.460;2023-02-11T04:37:33;82.85;;;60.28;;
32501;SDS011;18952;52.516;13.460;2023-02-11T04:40:00;83.35;;;62.05;;
32501;SDS011;18952;52.516;13.460;2023-02-11T04:42:26;86.63;;;61.08;;
32501;SDS011;18952;52.516;13.460;2023-02-11T04:44:53;87.00;;;61.97;;
32501;SDS011;18952;52.516;13.460;2023-02-11T04:47:20;92.63;;;63.90;;
32501;SDS011;18952;52.516;13.460;2023-02-11T04:49:46;87.90;;;64.28;;
32501;SDS011;18952;52.516;13.460;2023-02-11T04:52:13;91.90;;;64.90;;
32501;SDS011;18952;52.516;13.460;2023-02-11T04:54:40;85.75;;;64.30;;
32501;SDS011;18952;52.516;13.460;2023-02-11T04:57:06;88.60;;;63.60;;
32501;SDS011;18952;52.516;13.460;2023-02-11T04:59:33;88.85;;;66.85;;
32501;SDS011;18952;52.516;13.460;2023-02-11T05:02:00;94.13;;;68.25;;
32501;SDS011;18952;52.516;13.460;2023-02-11T05:04:27;90.68;;;66.55;;
32501;SDS011;18952;52.516;13.460;2023-02-11T05:06:53;93.10;;;66.72;;
32501;SDS011;18952;52.516;13.460;2023-02-11T05:09:23;103.80;;;69.55;;
32501;SDS011;18952;52.516;13.460;2023-02-11T05:11:50;101.32;;;68.88;;
32501;SDS011;18952;52.516;13.460;2023-02-11T05:14:17;97.00;;;66.18;;
32501;SDS011;18952;52.516;13.460;2023-02-11T05:16:44;102.20;;;69.78;;
32501;SDS011;18952;52.516;13.460;2023-02-11T05:19:11;96.50;;;69.60;;
32501;SDS011;18952;52.516;13.460;2023-02-11T05:21:37;100.38;;;69.55;;
32501;SDS011;18952;52.516;13.460;2023-02-11T05:24:08;97.65;;;69.70;;
32501;SDS011;18952;52.516;13.460;2023-02-11T05:26:35;101.30;;;67.85;;
32501;SDS011;18952;52.516;13.460;2023-02-11T05:29:02;101.55;;;70.35;;
32501;SDS011;18952;52.516;13.460;2023-02-11T05:31:29;100.18;;;71.30;;
32501;SDS011;18952;52.516;13.460;2023-02-11T05:33:56;97.43;;;70.85;;
32501;SDS011;18952;52.516;13.460;2023-02-11T05:36:22;100.32;;;70.78;;
32501;SDS011;18952;52.516;13.460;2023-02-11T05:38:49;96.68;;;70.18;;
32501;SDS011;18952;52.516;13.460;2023-02-11T05:41:16;109.03;;;71.75;;
32501;SDS011;18952;52.516;13.460;2023-02-11T05:43:43;101.75;;;71.35;;
32501;SDS011;18952;52.516;13.460;2023-02-11T05:46:09;96.10;;;72.22;;
32501;SDS011;18952;52.516;13.460;2023-02-11T05:48:36;111.57;;;74.20;;
32501;SDS011;18952;52.516;13.460;2023-02-11T05:51:03;104.63;;;71.60;;
32501;SDS011;18952;52.516;13.460;2023-02-11T05:53:30;105.00;;;73.20;;
32501;SDS011;18952;52.516;13.460;2023-02-11T05:55:56;101.32;;;72.90;;
32501;SDS011;18952;52.516;13.460;2023-02-11T05:58:23;107.43;;;76.57;;
32501;SDS011;18952;52.516;13.460;2023-02-11T06:00:50;106.53;;;75.80;;
32501;SDS011;18952;52.516;13.460;2023-02-11T06:03:17;111.10;;;78.45;;
32501;SDS011;18952;52.516;13.460;2023-02-11T06:05:43;111.57;;;77.30;;
32501;SDS011;18952;52.516;13.460;2023-02-11T06:08:11;107.80;;;78.50;;
32501;SDS011;18952;52.516;13.460;2023-02-11T06:10:38;114.38;;;80.03;;
32501;SDS011;18952;52.516;13.460;2023-02-11T06:13:04;110.00;;;78.78;;
32501;SDS011;18952;52.516;13.460;2023-02-11T06:15:31;113.03;;;80.80;;
32501;SDS011;18952;52.516;13.460;2023-02-11T06:17:58;118.20;;;80.35;;
32501;SDS011;18952;52.516;13.460;2023-02-11T06:20:25;111.90;;;78.53;;
32501;SDS011;18952;52.516;13.460;2023-02-11T06:22:51;111.28;;;79.25;;
32501;SDS011;18952;52.516;13.460;2023-02-11T06:25:18;112.53;;;80.28;;
32501;SDS011;18952;52.516;13.460;2023-02-11T06:27:45;112.93;;;79.60;;
32501;SDS011;18952;52.516;13.460;2023-02-11T06:30:11;116.43;;;81.30;;
32501;SDS011;18952;52.516;13.460;2023-02-11T06:32:39;118.25;;;81.78;;
32501;SDS011;18952;52.516;13.460;2023-02-11T06:35:11;114.70;;;80.47;;
32501;SDS011;18952;52.516;13.460;2023-02-11T06:37:38;116.22;;;81.15;;
32501;SDS011;18952;52.516;13.460;2023-02-11T06:40:06;116.90;;;82.35;;
32501;SDS011;18952;52.516;13.460;2023-02-11T06:42:33;122.75;;;83.47;;
32501;SDS011;18952;52.516;13.460;2023-02-11T06:45:00;122.20;;;84.97;;
32501;SDS011;18952;52.516;13.460;2023-02-11T06:47:26;124.28;;;83.85;;
32501;SDS011;18952;52.516;13.460;2023-02-11T06:49:53;124.15;;;84.60;;
32501;SDS011;18952;52.516;13.460;2023-02-11T06:52:20;126.35;;;86.82;;
32501;SDS011;18952;52.516;13.460;2023-02-11T06:54:47;119.97;;;85.68;;
32501;SDS011;18952;52.516;13.460;2023-02-11T06:57:13;117.88;;;84.38;;
32501;SDS011;18952;52.516;13.460;2023-02-11T06:59:40;118.32;;;84.15;;
32501;SDS011;18952;52.516;13.460;2023-02-11T07:02:10;123.03;;;82.85;;
32501;SDS011;18952;52.516;13.460;2023-02-11T07:04:37;124.00;;;84.50;;
32501;SDS011;18952;52.516;13.460;2023-02-11T07:07:03;123.95;;;84.88;;
32501;SDS011;18952;52.516;13.460;2023-02-11T07:09:30;132.43;;;86.53;;
32501;SDS011;18952;52.516;13.460;2023-02-11T07:11:57;124.93;;;85.00;;
32501;SDS011;18952;52.516;13.460;2023-02-11T07:14:24;125.50;;;87.28;;
32501;SDS011;18952;52.516;13.460;2023-02-11T07:16:51;128.85;;;87.60;;
32501;SDS011;18952;52.516;13.460;2023-02-11T07:19:17;127.22;;;87.38;;
32501;SDS011;18952;52.516;13.460;2023-02-11T07:21:44;129.55;;;87.93;;
32501;SDS011;18952;52.516;13.460;2023-02-11T07:24:11;131.73;;;87.00;;
32501;SDS011;18952;52.516;13.460;2023-02-11T07:26:38;135.45;;;85.95;;
32501;SDS011;18952;52.516;13.460;2023-02-11T07:29:05;126.15;;;87.07;;
32501;SDS011;18952;52.516;13.460;2023-02-11T07:31:32;130.90;;;86.38;;
32501;SDS011;18952;52.516;13.460;2023-02-11T07:34:01;127.55;;;86.10;;
32501;SDS011;18952;52.516;13.460;2023-02-11T07:36:29;125.20;;;88.07;;
32501;SDS011;18952;52.516;13.460;2023-02-11T07:38:56;118.28;;;83.30;;
32501;SDS011;18952;52.516;13.460;2023-02-11T07:41:24;123.78;;;84.45;;
32501;SDS011;18952;52.516;13.460;2023-02-11T07:43:51;124.18;;;85.38;;
32501;SDS011;18952;52.516;13.460;2023-02-11T07:46:23;119.40;;;83.38;;
32501;SDS011;18952;52.516;13.460;2023-02-11T07:48:51;128.13;;;85.85;;
32501;SDS011;18952;52.516;13.460;2023-02-11T07:51:22;117.75;;;82.32;;
32501;SDS011;18952;52.516;13.460;2023-02-11T07:53:51;127.18;;;84.00;;
32501;SDS011;18952;52.516;13.460;2023-02-11T07:56:18;120.55;;;82.78;;
32501;SDS011;18952;52.516;13.460;2023-02-11T07:58:46;116.10;;;82.00;;
32501;SDS011;18952;52.516;13.460;2023-02-11T08:01:14;117.22;;;80.50;;
32501;SDS011;18952;52.516;13.460;2023-02-11T08:03:43;122.05;;;81.13;;
32501;SDS011;18952;52.516;13.460;2023-02-11T08:06:11;118.75;;;82.88;;
32501;SDS011;18952;52.516;13.460;2023-02-11T08:08:40;122.80;;;82.93;;
32501;SDS011;18952;52.516;13.460;2023-02-11T08:11:08;112.07;;;79.78;;
32501;SDS011;18952;52.516;13.460;2023-02-11T08:13:39;112.60;;;81.65;;
32501;SDS011;18952;52.516;13.460;2023-02-11T08:16:06;116.32;;;78.60;;
32501;SDS011;18952;52.516;13.460;2023-02-11T08:18:34;118.38;;;79.07;;
32501;SDS011;18952;52.516;13.460;2023-02-11T08:21:05;118.72;;;81.07;;
32501;SDS011;18952;52.516;13.460;2023-02-11T08:23:34;117.63;;;79.95;;
32501;SDS011;18952;52.516;13.460;2023-02-11T08:26:02;116.03;;;80.20;;
32501;SDS011;18952;52.516;13.460;2023-02-11T08:28:37;115.25;;;78.25;;
32501;SDS011;18952;52.516;13.460;2023-02-11T08:31:05;119.50;;;80.60;;
32501;SDS011;18952;52.516;13.460;2023-02-11T08:33:33;115.85;;;80.43;;
32501;SDS011;18952;52.516;13.460;2023-02-11T08:36:00;122.22;;;81.47;;
32501;SDS011;18952;52.516;13.460;2023-02-11T08:38:32;115.93;;;79.13;;
32501;SDS011;18952;52.516;13.460;2023-02-11T08:40:59;126.43;;;82.50;;
32501;SDS011;18952;52.516;13.460;2023-02-11T08:43:26;123.68;;;81.20;;
32501;SDS011;18952;52.516;13.460;2023-02-11T08:45:53;124.30;;;81.35;;
32501;SDS011;18952;52.516;13.460;2023-02-11T08:48:20;119.05;;;80.10;;
32501;SDS011;18952;52.516;13.460;2023-02-11T08:50:46;119.97;;;79.75;;
32501;SDS011;18952;52.516;13.460;2023-02-11T08:53:13;116.30;;;80.88;;
32501;SDS011;18952;52.516;13.460;2023-02-11T08:55:41;117.53;;;79.82;;
32501;SDS011;18952;52.516;13.460;2023-02-11T08:58:14;119.40;;;77.22;;
32501;SDS011;18952;52.516;13.460;2023-02-11T09:00:44;115.28;;;78.35;;
32501;SDS011;18952;52.516;13.460;2023-02-11T09:03:11;122.47;;;78.72;;
32501;SDS011;18952;52.516;13.460;2023-02-11T09:05:43;115.47;;;79.18;;
32501;SDS011;18952;52.516;13.460;2023-02-11T09:08:11;114.13;;;74.30;;
32501;SDS011;18952;52.516;13.460;2023-02-11T09:10:38;119.70;;;75.15;;
32501;SDS011;18952;52.516;13.460;2023-02-11T09:13:05;117.93;;;76.85;;
32501;SDS011;18952;52.516;13.460;2023-02-11T09:15:32;116.78;;;77.90;;
32501;SDS011;18952;52.516;13.460;2023-02-11T09:17:59;106.13;;;74.88;;
32501;SDS011;18952;52.516;13.460;2023-02-11T09:20:26;119.55;;;76.13;;
32501;SDS011;18952;52.516;13.460;2023-02-11T09:22:53;117.30;;;75.60;;
32501;SDS011;18952;52.516;13.460;2023-02-11T09:25:22;111.95;;;74.35;;
32501;SDS011;18952;52.516;13.460;2023-02-11T09:27:49;112.32;;;75.75;;
32501;SDS011;18952;52.516;13.460;2023-02-11T09:30:16;107.63;;;74.03;;
32501;SDS011;18952;52.516;13.460;2023-02-11T09:32:42;107.65;;;74.05;;
32501;SDS011;18952;52.516;13.460;2023-02-11T09:35:09;106.75;;;74.50;;
32501;SDS011;18952;52.516;13.460;2023-02-11T09:37:36;103.72;;;71.15;;
32501;SDS011;18952;52.516;13.460;2023-02-11T09:40:03;106.90;;;70.18;;
32501;SDS011;18952;52.516;13.460;2023-02-11T09:42:44;103.60;;;70.20;;
32501;SDS011;18952;52.516;13.460;2023-02-11T09:45:27;113.60;;;74.33;;
32501;SDS011;18952;52.516;13.460;2023-02-11T09:48:04;109.40;;;71.22;;
32501;SDS011;18952;52.516;13.460;2023-02-11T09:50:40;109.38;;;72.25;;
32501;SDS011;18952;52.516;13.460;2023-02-11T09:53:23;114.35;;;74.88;;
32501;SDS011;18952;52.516;13.460;2023-02-11T09:55:51;111.45;;;73.22;;
32501;SDS011;18952;52.516;13.460;2023-02-11T09:58:24;111.70;;;71.40;;
32501;SDS011;18952;52.516;13.460;2023-02-11T10:01:05;102.68;;;71.35;;
32501;SDS011;18952;52.516;13.460;2023-02-11T10:09:03;111.22;;;71.63;;
32501;SDS011;18952;52.516;13.460;2023-02-11T10:25:07;104.10;;;71.05;;
32501;SDS011;18952;52.516;13.460;2023-02-11T10:27:47;118.80;;;76.10;;
32501;SDS011;18952;52.516;13.460;2023-02-11T10:30:18;114.05;;;75.07;;
32501;SDS011;18952;52.516;13.460;2023-02-11T10:35:28;112.55;;;70.93;;
32501;SDS011;18952;52.516;13.460;2023-02-11T10:37:56;116.13;;;75.65;;
32501;SDS011;18952;52.516;13.460;2023-02-11T10:40:26;116.07;;;72.68;;
32501;SDS011;18952;52.516;13.460;2023-02-11T10:42:55;115.32;;;73.57;;
32501;SDS011;18952;52.516;13.460;2023-02-11T10:47:59;114.72;;;72.25;;
32501;SDS011;18952;52.516;13.460;2023-02-11T10:50:29;115.85;;;73.90;;
32501;SDS011;18952;52.516;13.460;2023-02-11T10:53:19;120.10;;;75.78;;
32501;SDS011;18952;52.516;13.460;2023-02-11T10:58:22;116.82;;;74.55;;
32501;SDS011;18952;52.516;13.460;2023-02-11T11:01:08;108.20;;;70.32;;
32501;SDS011;18952;52.516;13.460;2023-02-11T11:03:50;113.32;;;71.95;;
32501;SDS011;18952;52.516;13.460;2023-02-11T11:06:27;114.05;;;73.03;;
32501;SDS011;18952;52.516;13.460;2023-02-11T11:08:58;112.55;;;71.90;;
32501;SDS011;18952;52.516;13.460;2023-02-11T11:11:27;109.70;;;71.10;;
32501;SDS011;18952;52.516;13.460;2023-02-11T11:13:58;110.22;;;71.05;;
32501;SDS011;18952;52.516;13.460;2023-02-11T11:16:32;104.55;;;68.65;;
32501;SDS011;18952;52.516;13.460;2023-02-11T11:21:39;112.90;;;73.95;;
32501;SDS011;18952;52.516;13.460;2023-02-11T11:24:13;123.35;;;76.00;;
32501;SDS011;18952;52.516;13.460;2023-02-11T11:26:47;125.00;;;74.30;;
32501;SDS011;18952;52.516;13.460;2023-02-11T11:29:28;117.38;;;73.38;;
32501;SDS011;18952;52.516;13.460;2023-02-11T11:34:41;109.10;;;69.72;;
32501;SDS011;18952;52.516;13.460;2023-02-11T11:37:18;107.55;;;72.20;;
32501;SDS011;18952;52.516;13.460;2023-02-11T11:39:56;110.82;;;70.30;;
32501;SDS011;18952;52.516;13.460;2023-02-11T11:42:34;103.00;;;68.65;;
32501;SDS011;18952;52.516;13.460;2023-02-11T11:47:57;95.28;;;63.22;;
32501;SDS011;18952;52.516;13.460;2023-02-11T11:50:36;95.30;;;62.65;;
32501;SDS011;18952;52.516;13.460;2023-02-11T11:58:31;88.10;;;55.72;;
32501;SDS011;18952;52.516;13.460;2023-02-11T12:12:27;82.88;;;53.63;;
32501;SDS011;18952;52.516;13.460;2023-02-11T12:21:54;76.25;;;49.55;;
32501;SDS011;18952;52.516;13.460;2023-02-11T12:24:05;81.85;;;51.55;;
32501;SDS011;18952;52.516;13.460;2023-02-11T12:32:29;85.88;;;50.20;;
32501;SDS011;18952;52.516;13.460;2023-02-11T12:48:46;73.18;;;48.28;;
32501;SDS011;18952;52.516;13.460;2023-02-11T12:51:35;73.25;;;48.78;;
32501;SDS011;18952;52.516;13.460;2023-02-11T12:54:36;67.35;;;47.28;;
32501;SDS011;18952;52.516;13.460;2023-02-11T13:10:48;69.28;;;49.33;;
32501;SDS011;18952;52.516;13.460;2023-02-11T13:24:19;65.00;;;46.25;;
32501;SDS011;18952;52.516;13.460;2023-02-11T13:26:59;70.20;;;49.38;;
32501;SDS011;18952;52.516;13.460;2023-02-11T13:29:38;60.90;;;45.20;;
32501;SDS011;18952;52.516;13.460;2023-02-11T13:32:48;67.57;;;45.78;;
32501;SDS011;18952;52.516;13.460;2023-02-11T13:35:33;59.92;;;46.03;;
32501;SDS011;18952;52.516;13.460;2023-02-11T13:43:56;65.75;;;46.80;;
32501;SDS011;18952;52.516;13.460;2023-02-11T13:49:17;58.55;;;41.75;;
32501;SDS011;18952;52.516;13.460;2023-02-11T13:51:47;66.22;;;44.97;;
32501;SDS011;18952;52.516;13.460;2023-02-11T13:54:22;56.35;;;40.95;;
32501;SDS011;18952;52.516;13.460;2023-02-11T13:57:20;62.95;;;42.45;;
32501;SDS011;18952;52.516;13.460;2023-02-11T13:59:51;65.22;;;43.28;;
32501;SDS011;18952;52.516;13.460;2023-02-11T14:07:30;61.65;;;41.15;;
32501;SDS011;18952;52.516;13.460;2023-02-11T14:09:58;61.05;;;40.70;;
32501;SDS011;18952;52.516;13.460;2023-02-11T14:12:30;58.50;;;41.20;;
32501;SDS011;18952;52.516;13.460;2023-02-11T14:17:31;52.38;;;38.63;;
32501;SDS011;18952;52.516;13.460;2023-02-11T14:20:00;63.22;;;40.25;;
32501;SDS011;18952;52.516;13.460;2023-02-11T14:22:46;55.92;;;40.47;;
32501;SDS011;18952;52.516;13.460;2023-02-11T14:25:20;61.25;;;42.20;;
32501;SDS011;18952;52.516;13.460;2023-02-11T14:30:53;53.63;;;39.00;;
32501;SDS011;18952;52.516;13.460;2023-02-11T14:44:29;59.17;;;42.58;;
32501;SDS011;18952;52.516;13.460;2023-02-11T14:46:57;59.45;;;42.20;;
32501;SDS011;18952;52.516;13.460;2023-02-11T14:49:26;59.42;;;42.65;;
32501;SDS011;18952;52.516;13.460;2023-02-11T14:52:02;52.40;;;40.10;;
32501;SDS011;18952;52.516;13.460;2023-02-11T14:54:32;54.75;;;39.88;;
32501;SDS011;18952;52.516;13.460;2023-02-11T14:57:22;49.33;;;37.58;;
32501;SDS011;18952;52.516;13.460;2023-02-11T14:59:54;46.85;;;34.25;;
32501;SDS011;18952;52.516;13.460;2023-02-11T15:02:31;45.33;;;35.10;;
32501;SDS011;18952;52.516;13.460;2023-02-11T15:07:52;41.72;;;30.90;;
32501;SDS011;18952;52.516;13.460;2023-02-11T15:13:01;43.15;;;31.98;;
32501;SDS011;18952;52.516;13.460;2023-02-11T15:15:30;42.63;;;30.73;;
32501;SDS011;18952;52.516;13.460;2023-02-11T15:17:58;41.13;;;30.60;;
32501;SDS011;18952;52.516;13.460;2023-02-11T15:20:29;44.20;;;32.40;;
32501;SDS011;18952;52.516;13.460;2023-02-11T15:22:59;38.00;;;30.45;;
32501;SDS011;18952;52.516;13.460;2023-02-11T15:25:28;41.72;;;30.73;;
32501;SDS011;18952;52.516;13.460;2023-02-11T15:27:58;44.75;;;30.98;;
32501;SDS011;18952;52.516;13.460;2023-02-11T15:30:27;43.55;;;31.20;;
32501;SDS011;18952;52.516;13.460;2023-02-11T15:32:57;37.75;;;28.90;;
32501;SDS011;18952;52.516;13.460;2023-02-11T15:35:29;32.05;;;27.58;;
32501;SDS011;18952;52.516;13.460;2023-02-11T15:38:03;34.72;;;27.23;;
32501;SDS011;18952;52.516;13.460;2023-02-11T15:40:31;33.75;;;27.05;;
32501;SDS011;18952;52.516;13.460;2023-02-11T15:45:32;36.00;;;27.60;;
32501;SDS011;18952;52.516;13.460;2023-02-11T15:48:13;41.72;;;29.63;;
32501;SDS011;18952;52.516;13.460;2023-02-11T15:50:42;34.65;;;28.63;;
32501;SDS011;18952;52.516;13.460;2023-02-11T15:55:59;40.40;;;30.02;;
32501;SDS011;18952;52.516;13.460;2023-02-11T15:58:37;39.70;;;31.65;;
32501;SDS011;18952;52.516;13.460;2023-02-11T16:01:07;46.42;;;33.38;;
32501;SDS011;18952;52.516;13.460;2023-02-11T16:03:36;56.83;;;37.13;;
32501;SDS011;18952;52.516;13.460;2023-02-11T16:06:16;48.63;;;34.92;;
32501;SDS011;18952;52.516;13.460;2023-02-11T16:09:00;49.83;;;33.55;;
32501;SDS011;18952;52.516;13.460;2023-02-11T16:11:29;46.75;;;32.97;;
32501;SDS011;18952;52.516;13.460;2023-02-11T16:13:58;42.97;;;32.17;;
32501;SDS011;18952;52.516;13.460;2023-02-11T16:16:32;50.00;;;33.70;;
32501;SDS011;18952;52.516;13.460;2023-02-11T16:19:00;45.47;;;30.13;;
32501;SDS011;18952;52.516;13.460;2023-02-11T16:21:34;43.75;;;30.35;;
32501;SDS011;18952;52.516;13.460;2023-02-11T16:24:06;40.15;;;29.73;;
32501;SDS011;18952;52.516;13.460;2023-02-11T16:26:45;38.90;;;29.52;;
32501;SDS011;18952;52.516;13.460;2023-02-11T16:29:22;38.92;;;29.40;;
32501;SDS011;18952;52.516;13.460;2023-02-11T16:32:04;31.48;;;27.55;;
32501;SDS011;18952;52.516;13.460;2023-02-11T16:34:40;35.47;;;27.65;;
32501;SDS011;18952;52.516;13.460;2023-02-11T16:37:07;38.72;;;29.15;;
32501;SDS011;18952;52.516;13.460;2023-02-11T16:39:34;40.92;;;28.85;;
32501;SDS011;18952;52.516;13.460;2023-02-11T16:42:01;37.72;;;28.02;;
32501;SDS011;18952;52.516;13.460;2023-02-11T16:44:32;31.17;;;26.02;;
32501;SDS011;18952;52.516;13.460;2023-02-11T16:47:00;35.75;;;26.55;;
32501;SDS011;18952;52.516;13.460;2023-02-11T16:49:29;31.63;;;25.02;;
32501;SDS011;18952;52.516;13.460;2023-02-11T16:52:01;29.55;;;24.15;;
32501;SDS011;18952;52.516;13.460;2023-02-11T16:54:32;31.67;;;25.10;;
32501;SDS011;18952;52.516;13.460;2023-02-11T16:56:59;28.50;;;22.60;;
32501;SDS011;18952;52.516;13.460;2023-02-11T16:59:27;28.45;;;22.13;;
32501;SDS011;18952;52.516;13.460;2023-02-11T17:01:54;24.02;;;20.20;;
32501;SDS011;18952;52.516;13.460;2023-02-11T17:04:26;26.60;;;20.88;;
32501;SDS011;18952;52.516;13.460;2023-02-11T17:06:56;25.60;;;20.42;;
32501;SDS011;18952;52.516;13.460;2023-02-11T17:09:24;29.95;;;22.00;;
32501;SDS011;18952;52.516;13.460;2023-02-11T17:11:56;30.85;;;24.10;;
32501;SDS011;18952;52.516;13.460;2023-02-11T17:14:22;34.13;;;25.90;;
32501;SDS011;18952;52.516;13.460;2023-02-11T17:16:49;33.17;;;24.83;;
32501;SDS011;18952;52.516;13.460;2023-02-11T17:19:17;28.70;;;22.75;;
32501;SDS011;18952;52.516;13.460;2023-02-11T17:21:49;27.25;;;21.60;;
32501;SDS011;18952;52.516;13.460;2023-02-11T17:24:17;28.30;;;22.33;;
32501;SDS011;18952;52.516;13.460;2023-02-11T17:26:46;25.17;;;21.85;;
32501;SDS011;18952;52.516;13.460;2023-02-11T17:29:15;23.65;;;19.67;;